sensor_id;sensor_type;location;lat;lon;timestamp;temperature;humidity
20590;DHT22;10453;50.810;12.540;2024-02-04T00:00:19;7.90;99.90
20590;DHT22;10453;50.810;12.540;2024-02-04T00:04:36;7.80;99.90
20590;DHT22;10453;50.810;12.540;2024-02-04T00:08:54;7.80;99.90
20590;DHT22;10453;50.810;12.540;2024-02-04T00:13:11;7.80;99.90
20590;DHT22;10453;50.810;12.540;2024-02-04T00:17:29;7.80;99.90
20590;DHT22;10453;50.810;12.540;2024-02-04T00:21:48;7.80;99.90
20590;DHT22;10453;50.810;12.540;2024-02-04T00:26:05;7.80;99.90
20590;DHT22;10453;50.810;12.540;2024-02-04T00:30:22;7.80;99.90
20590;DHT22;10453;50.810;12.540;2024-02-04T00:34:40;7.70;99.90
20590;DHT22;10453;50.810;12.540;2024-02-04T00:38:57;7.80;99.90
20590;DHT22;10453;50.810;12.540;2024-02-04T00:43:15;7.90;99.90
20590;DHT22;10453;50.810;12.540;2024-02-04T00:47:32;8.00;99.90
20590;DHT22;10453;50.810;12.540;2024-02-04T00:51:49;8.00;99.90
20590;DHT22;10453;50.810;12.540;2024-02-04T00:56:07;8.10;99.90
20590;DHT22;10453;50.810;12.540;2024-02-04T01:00:24;8.20;99.90
20590;DHT22;10453;50.810;12.540;2024-02-04T01:04:42;8.20;99.90
20590;DHT22;10453;50.810;12.540;2024-02-04T01:08:59;8.20;99.90
20590;DHT22;10453;50.810;12.540;2024-02-04T01:13:17;8.10;99.90
20590;DHT22;10453;50.810;12.540;2024-02-04T01:17:34;8.20;99.90
20590;DHT22;10453;50.810;12.540;2024-02-04T01:21:51;8.10;99.90
20590;DHT22;10453;50.810;12.540;2024-02-04T01:26:09;8.20;99.90
20590;DHT22;10453;50.810;12.540;2024-02-04T01:30:26;8.20;99.90
20590;DHT22;10453;50.810;12.540;2024-02-04T01:34:44;8.00;99.90
20590;DHT22;10453;50.810;12.540;2024-02-04T01:39:04;7.80;99.90
20590;DHT22;10453;50.810;12.540;2024-02-04T01:43:21;7.60;99.90
20590;DHT22;10453;50.810;12.540;2024-02-04T01:47:39;7.60;99.90
20590;DHT22;10453;50.810;12.540;2024-02-04T01:51:57;7.60;99.90
20590;DHT22;10453;50.810;12.540;2024-02-04T01:56:15;7.70;99.90
20590;DHT22;10453;50.810;12.540;2024-02-04T02:00:32;7.70;99.90
20590;DHT22;10453;50.810;12.540;2024-02-04T02:04:51;7.70;99.90
20590;DHT22;10453;50.810;12.540;2024-02-04T02:09:08;7.70;99.90
20590;DHT22;10453;50.810;12.540;2024-02-04T02:13:32;7.80;99.90
20590;DHT22;10453;50.810;12.540;2024-02-04T02:18:16;7.80;99.90
20590;DHT22;10453;50.810;12.540;2024-02-04T02:22:48;7.90;99.90
20590;DHT22;10453;50.810;12.540;2024-02-04T02:27:06;7.90;99.90
20590;DHT22;10453;50.810;12.540;2024-02-04T02:31:23;7.90;99.90
20590;DHT22;10453;50.810;12.540;2024-02-04T02:35:57;7.90;99.90
20590;DHT22;10453;50.810;12.540;2024-02-04T02:40:23;8.00;99.90
20590;DHT22;10453;50.810;12.540;2024-02-04T02:44:41;8.00;99.90
20590;DHT22;10453;50.810;12.540;2024-02-04T02:49:00;8.00;99.90
20590;DHT22;10453;50.810;12.540;2024-02-04T02:53:18;7.90;99.90
20590;DHT22;10453;50.810;12.540;2024-02-04T02:57:36;8.00;99.90
20590;DHT22;10453;50.810;12.540;2024-02-04T03:01:54;8.00;99.90
20590;DHT22;10453;50.810;12.540;2024-02-04T03:06:11;8.00;99.90
20590;DHT22;10453;50.810;12.540;2024-02-04T03:10:28;7.90;99.90
20590;DHT22;10453;50.810;12.540;2024-02-04T03:14:45;7.90;99.90
20590;DHT22;10453;50.810;12.540;2024-02-04T03:19:05;7.80;99.90
20590;DHT22;10453;50.810;12.540;2024-02-04T03:23:23;7.80;99.90
20590;DHT22;10453;50.810;12.540;2024-02-04T03:27:42;7.80;99.90
20590;DHT22;10453;50.810;12.540;2024-02-04T03:31:59;7.80;99.90
20590;DHT22;10453;50.810;12.540;2024-02-04T03:36:19;7.70;99.90
20590;DHT22;10453;50.810;12.540;2024-02-04T03:40:36;7.70;99.90
20590;DHT22;10453;50.810;12.540;2024-02-04T03:44:55;7.60;99.90
20590;DHT22;10453;50.810;12.540;2024-02-04T03:49:12;7.60;99.90
20590;DHT22;10453;50.810;12.540;2024-02-04T03:53:29;7.70;99.90
20590;DHT22;10453;50.810;12.540;2024-02-04T03:57:47;7.50;99.90
20590;DHT22;10453;50.810;12.540;2024-02-04T04:02:04;7.60;99.90
20590;DHT22;10453;50.810;12.540;2024-02-04T04:06:21;7.50;99.90
20590;DHT22;10453;50.810;12.540;2024-02-04T04:10:39;7.50;99.90
20590;DHT22;10453;50.810;12.540;2024-02-04T04:14:56;7.50;99.90
20590;DHT22;10453;50.810;12.540;2024-02-04T04:19:13;7.50;99.90
20590;DHT22;10453;50.810;12.540;2024-02-04T04:23:31;7.60;99.90
20590;DHT22;10453;50.810;12.540;2024-02-04T04:27:48;7.70;99.90
20590;DHT22;10453;50.810;12.540;2024-02-04T04:32:06;7.70;99.90
20590;DHT22;10453;50.810;12.540;2024-02-04T04:36:23;7.80;99.90
20590;DHT22;10453;50.810;12.540;2024-02-04T04:40:41;7.80;99.90
20590;DHT22;10453;50.810;12.540;2024-02-04T04:44:58;7.80;99.90
20590;DHT22;10453;50.810;12.540;2024-02-04T04:49:15;7.90;99.90
20590;DHT22;10453;50.810;12.540;2024-02-04T04:53:33;8.00;99.90
20590;DHT22;10453;50.810;12.540;2024-02-04T04:57:51;8.10;99.90
20590;DHT22;10453;50.810;12.540;2024-02-04T05:02:09;8.10;99.90
20590;DHT22;10453;50.810;12.540;2024-02-04T05:06:28;8.10;99.90
20590;DHT22;10453;50.810;12.540;2024-02-04T05:10:45;8.10;99.90
20590;DHT22;10453;50.810;12.540;2024-02-04T05:15:03;8.10;99.90
20590;DHT22;10453;50.810;12.540;2024-02-04T05:19:21;8.10;99.90
20590;DHT22;10453;50.810;12.540;2024-02-04T05:23:39;8.20;99.90
20590;DHT22;10453;50.810;12.540;2024-02-04T05:27:56;8.10;99.90
20590;DHT22;10453;50.810;12.540;2024-02-04T05:32:13;8.10;99.90
20590;DHT22;10453;50.810;12.540;2024-02-04T05:36:31;8.30;99.90
20590;DHT22;10453;50.810;12.540;2024-02-04T05:40:49;8.30;99.90
20590;DHT22;10453;50.810;12.540;2024-02-04T05:45:06;8.30;99.90
20590;DHT22;10453;50.810;12.540;2024-02-04T05:49:24;8.30;99.90
20590;DHT22;10453;50.810;12.540;2024-02-04T05:53:41;8.30;99.90
20590;DHT22;10453;50.810;12.540;2024-02-04T05:57:58;8.30;99.90
20590;DHT22;10453;50.810;12.540;2024-02-04T06:02:16;8.50;99.90
20590;DHT22;10453;50.810;12.540;2024-02-04T06:06:34;8.60;99.90
20590;DHT22;10453;50.810;12.540;2024-02-04T06:10:51;8.60;99.90
20590;DHT22;10453;50.810;12.540;2024-02-04T06:15:15;8.70;99.90
20590;DHT22;10453;50.810;12.540;2024-02-04T06:19:33;8.70;99.90
20590;DHT22;10453;50.810;12.540;2024-02-04T06:23:50;8.60;99.90
20590;DHT22;10453;50.810;12.540;2024-02-04T06:28:07;8.60;99.90
20590;DHT22;10453;50.810;12.540;2024-02-04T06:32:25;8.50;99.90
20590;DHT22;10453;50.810;12.540;2024-02-04T06:36:43;8.60;99.90
20590;DHT22;10453;50.810;12.540;2024-02-04T06:41:04;8.50;99.90
20590;DHT22;10453;50.810;12.540;2024-02-04T06:45:21;8.50;99.90
20590;DHT22;10453;50.810;12.540;2024-02-04T06:49:39;8.50;99.90
20590;DHT22;10453;50.810;12.540;2024-02-04T06:53:57;8.50;99.90
20590;DHT22;10453;50.810;12.540;2024-02-04T06:58:14;8.40;99.90
20590;DHT22;10453;50.810;12.540;2024-02-04T07:02:36;8.60;99.90
20590;DHT22;10453;50.810;12.540;2024-02-04T07:06:53;8.70;99.90
20590;DHT22;10453;50.810;12.540;2024-02-04T07:11:11;8.70;99.90
20590;DHT22;10453;50.810;12.540;2024-02-04T07:15:28;8.80;99.90
20590;DHT22;10453;50.810;12.540;2024-02-04T07:19:45;8.90;99.90
20590;DHT22;10453;50.810;12.540;2024-02-04T07:24:03;8.90;99.90
20590;DHT22;10453;50.810;12.540;2024-02-04T07:28:20;9.10;99.90
20590;DHT22;10453;50.810;12.540;2024-02-04T07:32:38;9.20;99.90
20590;DHT22;10453;50.810;12.540;2024-02-04T07:36:55;9.20;99.90
20590;DHT22;10453;50.810;12.540;2024-02-04T07:41:15;9.70;99.90
20590;DHT22;10453;50.810;12.540;2024-02-04T07:45:34;9.20;99.90
20590;DHT22;10453;50.810;12.540;2024-02-04T07:49:51;9.20;99.90
20590;DHT22;10453;50.810;12.540;2024-02-04T07:54:09;9.10;99.90
20590;DHT22;10453;50.810;12.540;2024-02-04T07:58:26;9.10;99.90
20590;DHT22;10453;50.810;12.540;2024-02-04T08:02:44;9.10;99.90
20590;DHT22;10453;50.810;12.540;2024-02-04T08:07:02;9.10;99.90
20590;DHT22;10453;50.810;12.540;2024-02-04T08:11:20;9.10;99.90
20590;DHT22;10453;50.810;12.540;2024-02-04T08:15:38;9.10;99.90
20590;DHT22;10453;50.810;12.540;2024-02-04T08:19:57;9.20;99.90
20590;DHT22;10453;50.810;12.540;2024-02-04T08:24:14;9.30;99.90
20590;DHT22;10453;50.810;12.540;2024-02-04T08:28:31;9.30;99.90
20590;DHT22;10453;50.810;12.540;2024-02-04T08:32:49;9.30;99.90
20590;DHT22;10453;50.810;12.540;2024-02-04T08:37:06;9.40;99.90
20590;DHT22;10453;50.810;12.540;2024-02-04T08:41:24;9.40;99.90
20590;DHT22;10453;50.810;12.540;2024-02-04T08:45:41;9.50;99.90
20590;DHT22;10453;50.810;12.540;2024-02-04T08:49:59;9.50;99.90
20590;DHT22;10453;50.810;12.540;2024-02-04T08:54:16;9.60;99.90
20590;DHT22;10453;50.810;12.540;2024-02-04T08:58:35;9.60;99.90
20590;DHT22;10453;50.810;12.540;2024-02-04T09:02:54;9.60;99.90
20590;DHT22;10453;50.810;12.540;2024-02-04T09:07:11;9.50;99.90
20590;DHT22;10453;50.810;12.540;2024-02-04T09:11:29;9.60;99.90
20590;DHT22;10453;50.810;12.540;2024-02-04T09:15:46;9.70;99.90
20590;DHT22;10453;50.810;12.540;2024-02-04T09:20:05;9.70;99.90
20590;DHT22;10453;50.810;12.540;2024-02-04T09:24:23;9.70;99.90
20590;DHT22;10453;50.810;12.540;2024-02-04T09:28:40;9.80;99.90
20590;DHT22;10453;50.810;12.540;2024-02-04T09:32:58;9.80;99.90
20590;DHT22;10453;50.810;12.540;2024-02-04T09:37:15;9.70;99.90
20590;DHT22;10453;50.810;12.540;2024-02-04T09:41:37;9.70;99.90
20590;DHT22;10453;50.810;12.540;2024-02-04T09:45:54;9.50;99.90
20590;DHT22;10453;50.810;12.540;2024-02-04T09:50:12;9.30;99.90
20590;DHT22;10453;50.810;12.540;2024-02-04T09:54:32;9.20;99.90
20590;DHT22;10453;50.810;12.540;2024-02-04T09:58:51;9.10;99.90
20590;DHT22;10453;50.810;12.540;2024-02-04T10:03:10;9.10;99.90
20590;DHT22;10453;50.810;12.540;2024-02-04T10:07:28;9.00;99.90
20590;DHT22;10453;50.810;12.540;2024-02-04T10:11:45;9.10;99.90
20590;DHT22;10453;50.810;12.540;2024-02-04T10:16:03;9.20;99.90
20590;DHT22;10453;50.810;12.540;2024-02-04T10:20:21;9.30;99.90
20590;DHT22;10453;50.810;12.540;2024-02-04T10:24:38;9.40;99.90
20590;DHT22;10453;50.810;12.540;2024-02-04T10:28:57;9.40;99.90
20590;DHT22;10453;50.810;12.540;2024-02-04T10:33:15;9.40;99.90
20590;DHT22;10453;50.810;12.540;2024-02-04T10:37:32;9.50;99.90
20590;DHT22;10453;50.810;12.540;2024-02-04T10:41:51;9.70;99.90
20590;DHT22;10453;50.810;12.540;2024-02-04T10:46:14;9.80;99.90
20590;DHT22;10453;50.810;12.540;2024-02-04T10:50:35;10.00;99.90
20590;DHT22;10453;50.810;12.540;2024-02-04T10:54:55;10.20;99.90
20590;DHT22;10453;50.810;12.540;2024-02-04T10:59:16;10.40;99.90
20590;DHT22;10453;50.810;12.540;2024-02-04T11:03:35;10.50;99.90
20590;DHT22;10453;50.810;12.540;2024-02-04T11:07:53;10.50;99.90
20590;DHT22;10453;50.810;12.540;2024-02-04T11:12:12;10.50;99.90
20590;DHT22;10453;50.810;12.540;2024-02-04T11:25:46;10.80;99.90
20590;DHT22;10453;50.810;12.540;2024-02-04T11:30:06;10.70;99.90
20590;DHT22;10453;50.810;12.540;2024-02-04T11:34:23;10.80;99.90
20590;DHT22;10453;50.810;12.540;2024-02-04T11:38:41;10.80;99.90
20590;DHT22;10453;50.810;12.540;2024-02-04T11:43:06;10.80;99.90
20590;DHT22;10453;50.810;12.540;2024-02-04T11:47:25;10.80;99.90
20590;DHT22;10453;50.810;12.540;2024-02-04T11:51:50;10.70;99.90
20590;DHT22;10453;50.810;12.540;2024-02-04T11:56:12;10.50;99.90
20590;DHT22;10453;50.810;12.540;2024-02-04T12:00:32;10.50;99.90
20590;DHT22;10453;50.810;12.540;2024-02-04T12:04:51;10.40;99.90
20590;DHT22;10453;50.810;12.540;2024-02-04T12:09:09;10.30;99.90
20590;DHT22;10453;50.810;12.540;2024-02-04T12:13:30;10.10;99.90
20590;DHT22;10453;50.810;12.540;2024-02-04T12:17:49;10.00;99.90
20590;DHT22;10453;50.810;12.540;2024-02-04T12:22:07;9.80;99.90
20590;DHT22;10453;50.810;12.540;2024-02-04T12:26:27;9.50;99.90
20590;DHT22;10453;50.810;12.540;2024-02-04T12:30:56;9.40;99.90
20590;DHT22;10453;50.810;12.540;2024-02-04T12:35:15;9.30;99.90
20590;DHT22;10453;50.810;12.540;2024-02-04T12:39:33;9.20;99.90
20590;DHT22;10453;50.810;12.540;2024-02-04T12:43:59;9.20;99.90
20590;DHT22;10453;50.810;12.540;2024-02-04T12:48:17;9.10;99.90
20590;DHT22;10453;50.810;12.540;2024-02-04T12:52:38;9.00;99.90
20590;DHT22;10453;50.810;12.540;2024-02-04T12:56:56;9.00;99.90
20590;DHT22;10453;50.810;12.540;2024-02-04T13:01:17;9.00;99.90
20590;DHT22;10453;50.810;12.540;2024-02-04T13:05:35;9.00;99.90
20590;DHT22;10453;50.810;12.540;2024-02-04T13:09:58;9.10;99.90
20590;DHT22;10453;50.810;12.540;2024-02-04T13:14:19;9.00;99.90
20590;DHT22;10453;50.810;12.540;2024-02-04T13:18:36;9.00;99.90
20590;DHT22;10453;50.810;12.540;2024-02-04T13:22:53;9.00;99.90
20590;DHT22;10453;50.810;12.540;2024-02-04T13:27:11;9.00;99.90
20590;DHT22;10453;50.810;12.540;2024-02-04T13:31:28;9.10;99.90
20590;DHT22;10453;50.810;12.540;2024-02-04T13:35:46;9.10;99.90
20590;DHT22;10453;50.810;12.540;2024-02-04T13:40:07;9.20;99.90
20590;DHT22;10453;50.810;12.540;2024-02-04T13:44:25;9.20;99.90
20590;DHT22;10453;50.810;12.540;2024-02-04T13:48:42;9.20;99.90
20590;DHT22;10453;50.810;12.540;2024-02-04T13:53:00;9.20;99.90
20590;DHT22;10453;50.810;12.540;2024-02-04T13:57:17;9.20;99.90
20590;DHT22;10453;50.810;12.540;2024-02-04T14:01:34;9.20;99.90
20590;DHT22;10453;50.810;12.540;2024-02-04T14:05:52;9.10;99.90
20590;DHT22;10453;50.810;12.540;2024-02-04T14:10:09;9.10;99.90
20590;DHT22;10453;50.810;12.540;2024-02-04T14:14:29;9.10;99.90
20590;DHT22;10453;50.810;12.540;2024-02-04T14:18:46;9.00;99.90
20590;DHT22;10453;50.810;12.540;2024-02-04T14:23:04;9.00;99.90
20590;DHT22;10453;50.810;12.540;2024-02-04T14:27:21;9.00;99.90
20590;DHT22;10453;50.810;12.540;2024-02-04T14:31:39;9.10;99.90
20590;DHT22;10453;50.810;12.540;2024-02-04T14:35:56;9.10;99.90
20590;DHT22;10453;50.810;12.540;2024-02-04T14:40:14;9.10;99.90
20590;DHT22;10453;50.810;12.540;2024-02-04T14:44:32;9.10;99.90
20590;DHT22;10453;50.810;12.540;2024-02-04T14:48:50;9.20;99.90
20590;DHT22;10453;50.810;12.540;2024-02-04T14:53:07;9.10;99.90
20590;DHT22;10453;50.810;12.540;2024-02-04T14:57:25;9.20;99.90
20590;DHT22;10453;50.810;12.540;2024-02-04T15:01:45;9.30;99.90
20590;DHT22;10453;50.810;12.540;2024-02-04T15:06:05;9.30;99.90
20590;DHT22;10453;50.810;12.540;2024-02-04T15:10:22;9.40;99.90
20590;DHT22;10453;50.810;12.540;2024-02-04T15:14:40;9.40;99.90
20590;DHT22;10453;50.810;12.540;2024-02-04T15:18:58;9.40;99.90
20590;DHT22;10453;50.810;12.540;2024-02-04T15:23:17;9.40;99.90
20590;DHT22;10453;50.810;12.540;2024-02-04T15:27:35;9.40;99.90
20590;DHT22;10453;50.810;12.540;2024-02-04T15:31:53;9.40;99.90
20590;DHT22;10453;50.810;12.540;2024-02-04T15:36:10;9.30;99.90
20590;DHT22;10453;50.810;12.540;2024-02-04T15:40:29;9.30;99.90
20590;DHT22;10453;50.810;12.540;2024-02-04T15:44:48;9.30;99.90
20590;DHT22;10453;50.810;12.540;2024-02-04T15:49:06;9.30;99.90
20590;DHT22;10453;50.810;12.540;2024-02-04T15:53:27;9.20;99.90
20590;DHT22;10453;50.810;12.540;2024-02-04T15:57:51;9.20;99.90
20590;DHT22;10453;50.810;12.540;2024-02-04T16:02:09;9.10;99.90
20590;DHT22;10453;50.810;12.540;2024-02-04T16:06:27;9.10;99.90
20590;DHT22;10453;50.810;12.540;2024-02-04T16:10:45;9.10;99.90
20590;DHT22;10453;50.810;12.540;2024-02-04T16:15:04;9.10;99.90
20590;DHT22;10453;50.810;12.540;2024-02-04T16:19:23;9.20;99.90
20590;DHT22;10453;50.810;12.540;2024-02-04T16:23:41;9.20;99.90
20590;DHT22;10453;50.810;12.540;2024-02-04T16:28:00;9.10;99.90
20590;DHT22;10453;50.810;12.540;2024-02-04T16:32:17;9.10;99.90
20590;DHT22;10453;50.810;12.540;2024-02-04T16:36:34;9.10;99.90
20590;DHT22;10453;50.810;12.540;2024-02-04T16:40:52;9.00;99.90
20590;DHT22;10453;50.810;12.540;2024-02-04T16:45:10;9.10;99.90
20590;DHT22;10453;50.810;12.540;2024-02-04T16:49:27;9.00;99.90
20590;DHT22;10453;50.810;12.540;2024-02-04T16:53:46;9.00;99.90
20590;DHT22;10453;50.810;12.540;2024-02-04T16:58:05;9.00;99.90
20590;DHT22;10453;50.810;12.540;2024-02-04T17:02:24;9.00;99.90
20590;DHT22;10453;50.810;12.540;2024-02-04T17:06:42;9.00;99.90
20590;DHT22;10453;50.810;12.540;2024-02-04T17:11:01;9.00;99.90
20590;DHT22;10453;50.810;12.540;2024-02-04T17:15:19;9.00;99.90
20590;DHT22;10453;50.810;12.540;2024-02-04T17:24:27;9.00;99.90
20590;DHT22;10453;50.810;12.540;2024-02-04T17:28:45;9.00;99.90
20590;DHT22;10453;50.810;12.540;2024-02-04T17:33:02;9.00;99.90
20590;DHT22;10453;50.810;12.540;2024-02-04T17:37:22;8.90;99.90
20590;DHT22;10453;50.810;12.540;2024-02-04T17:41:39;9.00;99.90
20590;DHT22;10453;50.810;12.540;2024-02-04T17:45:57;9.10;99.90
20590;DHT22;10453;50.810;12.540;2024-02-04T17:50:14;9.10;99.90
20590;DHT22;10453;50.810;12.540;2024-02-04T17:54:32;9.20;99.90
20590;DHT22;10453;50.810;12.540;2024-02-04T17:58:52;9.20;99.90
20590;DHT22;10453;50.810;12.540;2024-02-04T18:03:12;9.10;99.90
20590;DHT22;10453;50.810;12.540;2024-02-04T18:07:32;9.20;99.90
20590;DHT22;10453;50.810;12.540;2024-02-04T18:11:50;9.20;99.90
20590;DHT22;10453;50.810;12.540;2024-02-04T18:16:08;9.10;99.90
20590;DHT22;10453;50.810;12.540;2024-02-04T18:20:25;9.10;99.90
20590;DHT22;10453;50.810;12.540;2024-02-04T18:24:42;9.10;99.90
20590;DHT22;10453;50.810;12.540;2024-02-04T18:29:02;9.10;99.90
20590;DHT22;10453;50.810;12.540;2024-02-04T18:33:19;9.10;99.90
20590;DHT22;10453;50.810;12.540;2024-02-04T18:37:37;9.10;99.90
20590;DHT22;10453;50.810;12.540;2024-02-04T18:41:54;9.10;99.90
20590;DHT22;10453;50.810;12.540;2024-02-04T18:46:11;9.10;99.90
20590;DHT22;10453;50.810;12.540;2024-02-04T18:50:29;9.10;99.90
20590;DHT22;10453;50.810;12.540;2024-02-04T18:54:47;9.20;99.90
20590;DHT22;10453;50.810;12.540;2024-02-04T18:59:04;9.30;99.90
20590;DHT22;10453;50.810;12.540;2024-02-04T19:03:21;9.30;99.90
20590;DHT22;10453;50.810;12.540;2024-02-04T19:07:38;9.30;99.90
20590;DHT22;10453;50.810;12.540;2024-02-04T19:11:56;9.20;99.90
20590;DHT22;10453;50.810;12.540;2024-02-04T19:16:21;9.20;99.90
20590;DHT22;10453;50.810;12.540;2024-02-04T19:20:40;9.20;99.90
20590;DHT22;10453;50.810;12.540;2024-02-04T19:24:57;9.20;99.90
20590;DHT22;10453;50.810;12.540;2024-02-04T19:29:15;9.20;99.90
20590;DHT22;10453;50.810;12.540;2024-02-04T19:33:34;9.20;99.90
20590;DHT22;10453;50.810;12.540;2024-02-04T19:37:52;9.20;99.90
20590;DHT22;10453;50.810;12.540;2024-02-04T19:42:09;9.30;99.90
20590;DHT22;10453;50.810;12.540;2024-02-04T19:46:28;9.30;99.90
20590;DHT22;10453;50.810;12.540;2024-02-04T19:50:45;9.30;99.90
20590;DHT22;10453;50.810;12.540;2024-02-04T19:55:03;9.30;99.90
20590;DHT22;10453;50.810;12.540;2024-02-04T19:59:21;9.30;99.90
20590;DHT22;10453;50.810;12.540;2024-02-04T20:03:38;9.40;99.90
20590;DHT22;10453;50.810;12.540;2024-02-04T20:07:56;9.40;99.90
20590;DHT22;10453;50.810;12.540;2024-02-04T20:12:14;9.40;99.90
20590;DHT22;10453;50.810;12.540;2024-02-04T20:16:35;9.40;99.90
20590;DHT22;10453;50.810;12.540;2024-02-04T20:20:53;9.50;99.90
20590;DHT22;10453;50.810;12.540;2024-02-04T20:25:10;9.40;99.90
20590;DHT22;10453;50.810;12.540;2024-02-04T20:29:27;9.40;99.90
20590;DHT22;10453;50.810;12.540;2024-02-04T20:33:45;9.40;99.90
20590;DHT22;10453;50.810;12.540;2024-02-04T20:38:03;9.40;99.90
20590;DHT22;10453;50.810;12.540;2024-02-04T20:42:20;9.40;99.90
20590;DHT22;10453;50.810;12.540;2024-02-04T20:46:38;9.40;99.90
20590;DHT22;10453;50.810;12.540;2024-02-04T20:50:58;9.40;99.90
20590;DHT22;10453;50.810;12.540;2024-02-04T20:55:16;9.30;99.90
20590;DHT22;10453;50.810;12.540;2024-02-04T20:59:33;9.30;99.90
20590;DHT22;10453;50.810;12.540;2024-02-04T21:03:51;9.20;99.90
20590;DHT22;10453;50.810;12.540;2024-02-04T21:08:12;9.20;99.90
20590;DHT22;10453;50.810;12.540;2024-02-04T21:12:30;9.20;99.90
20590;DHT22;10453;50.810;12.540;2024-02-04T21:16:47;9.20;99.90
20590;DHT22;10453;50.810;12.540;2024-02-04T21:21:04;9.10;99.90
20590;DHT22;10453;50.810;12.540;2024-02-04T21:25:22;9.10;99.90
20590;DHT22;10453;50.810;12.540;2024-02-04T21:29:39;9.10;99.90
20590;DHT22;10453;50.810;12.540;2024-02-04T21:33:56;9.10;99.90
20590;DHT22;10453;50.810;12.540;2024-02-04T21:38:14;9.10;99.90
20590;DHT22;10453;50.810;12.540;2024-02-04T21:42:31;9.20;99.90
20590;DHT22;10453;50.810;12.540;2024-02-04T21:46:50;9.20;99.90
20590;DHT22;10453;50.810;12.540;2024-02-04T21:51:07;9.20;99.90
20590;DHT22;10453;50.810;12.540;2024-02-04T21:55:24;9.20;99.90
20590;DHT22;10453;50.810;12.540;2024-02-04T21:59:42;9.20;99.90
20590;DHT22;10453;50.810;12.540;2024-02-04T22:03:59;9.20;99.90
20590;DHT22;10453;50.810;12.540;2024-02-04T22:08:17;9.20;99.90
20590;DHT22;10453;50.810;12.540;2024-02-04T22:12:35;9.20;99.90
20590;DHT22;10453;50.810;12.540;2024-02-04T22:16:52;9.20;99.90
20590;DHT22;10453;50.810;12.540;2024-02-04T22:21:21;9.20;99.90
20590;DHT22;10453;50.810;12.540;2024-02-04T22:25:40;9.30;99.90
20590;DHT22;10453;50.810;12.540;2024-02-04T22:29:58;9.30;99.90
20590;DHT22;10453;50.810;12.540;2024-02-04T22:34:15;9.40;99.90
20590;DHT22;10453;50.810;12.540;2024-02-04T22:38:33;9.40;99.90
20590;DHT22;10453;50.810;12.540;2024-02-04T22:42:51;9.40;99.90
20590;DHT22;10453;50.810;12.540;2024-02-04T22:47:08;9.40;99.90
20590;DHT22;10453;50.810;12.540;2024-02-04T22:51:26;9.40;99.90
20590;DHT22;10453;50.810;12.540;2024-02-04T22:55:44;9.50;99.90
20590;DHT22;10453;50.810;12.540;2024-02-04T23:00:02;9.00;99.90
20590;DHT22;10453;50.810;12.540;2024-02-04T23:04:27;9.50;99.90
20590;DHT22;10453;50.810;12.540;2024-02-04T23:08:45;9.50;99.90
20590;DHT22;10453;50.810;12.540;2024-02-04T23:13:02;9.60;99.90
20590;DHT22;10453;50.810;12.540;2024-02-04T23:17:19;9.50;99.90
20590;DHT22;10453;50.810;12.540;2024-02-04T23:21:38;9.60;99.90
20590;DHT22;10453;50.810;12.540;2024-02-04T23:25:56;9.60;99.90
20590;DHT22;10453;50.810;12.540;2024-02-04T23:30:13;9.70;99.90
20590;DHT22;10453;50.810;12.540;2024-02-04T23:34:30;9.80;99.90
20590;DHT22;10453;50.810;12.540;2024-02-04T23:38:48;9.80;99.90
20590;DHT22;10453;50.810;12.540;2024-02-04T23:43:05;9.70;99.90
20590;DHT22;10453;50.810;12.540;2024-02-04T23:47:23;9.80;99.90
20590;DHT22;10453;50.810;12.540;2024-02-04T23:51:41;9.70;99.90
20590;DHT22;10453;50.810;12.540;2024-02-04T23:55:59;9.80;99.90
